Time;durP1;ratioP1;P1;durP2;ratioP2;P2;SDS_P1;SDS_P2;PMS_P1;PMS_P2;Temp;Humidity;BMP_temperature;BMP_pressure;BME280_temperature;BME280_humidity;BME280_pressure;Samples;Min_cycle;Max_cycle;Signal;HPM_P1;HPM_P2
2021/08/01 00:03:45;;;;;;;;;24.50;23.50;;;;;;;;8723790;40;11183;-63
2021/08/01 00:09:59;;;;;;;;;24.25;21.25;;;;;;;;8724287;40;11141;-61
2021/08/01 00:16:02;;;;;;;;;29.00;27.00;;;;;;;;8725349;40;10983;-62
2021/08/01 00:22:04;;;;;;;;;27.75;24.75;;;;;;;;8724000;40;10865;-63
2021/08/01 00:28:08;;;;;;;;;26.50;23.75;;;;;;;;8724951;40;10922;-62
2021/08/01 00:34:10;;;;;;;;;22.75;22.75;;;;;;;;8724282;40;10798;-62
2021/08/01 00:40:12;;;;;;;;;22.50;20.75;;;;;;;;8724014;40;10954;-62
2021/08/01 00:46:16;;;;;;;;;26.75;22.50;;;;;;;;8724610;40;10772;-61
2021/08/01 00:52:19;;;;;;;;;19.00;17.50;;;;;;;;8723704;40;10722;-61
2021/08/01 00:58:21;;;;;;;;;18.75;18.75;;;;;;;;8723685;40;10826;-61
2021/08/01 01:04:33;;;;;;;;;25.75;23.50;;;;;;;;8723703;40;11580;-61
2021/08/01 01:10:41;;;;;;;;;23.75;20.25;;;;;;;;8723651;40;11814;-62
2021/08/01 01:17:02;;;;;;;;;29.50;24.75;;;;;;;;8722260;40;11730;-62
2021/08/01 01:23:33;;;;;;;;;26.50;24.75;;;;;;;;8723150;40;11064;-62
2021/08/01 01:29:53;;;;;;;;;24.50;23.25;;;;;;;;8723186;40;11043;-62
2021/08/01 01:35:59;;;;;;;;;24.75;24.00;;;;;;;;8722840;40;10915;-62
2021/08/01 01:42:03;;;;;;;;;26.50;24.50;;;;;;;;8721979;40;10796;-63
2021/08/01 01:48:17;;;;;;;;;24.75;24.50;;;;;;;;8722665;40;10774;-62
2021/08/01 01:54:20;;;;;;;;;27.00;23.75;;;;;;;;8723215;40;10930;-62
2021/08/01 02:00:24;;;;;;;;;26.50;22.25;;;;;;;;8722016;40;10965;-62
2021/08/01 02:06:38;;;;;;;;;36.75;32.75;;;;;;;;8722036;40;10776;-62
2021/08/01 02:12:56;;;;;;;;;26.50;24.25;;;;;;;;8722600;40;10935;-62
2021/08/01 02:19:09;;;;;;;;;25.75;23.50;;;;;;;;8722264;40;10687;-62
2021/08/01 02:25:18;;;;;;;;;26.25;24.50;;;;;;;;8721506;40;10944;-62
2021/08/01 02:31:21;;;;;;;;;27.00;24.75;;;;;;;;8721405;40;10767;-61
2021/08/01 02:37:26;;;;;;;;;21.25;21.00;;;;;;;;8722185;40;11072;-62
2021/08/01 02:43:31;;;;;;;;;25.00;25.00;;;;;;;;8698577;40;11201;-61
2021/08/01 02:49:39;;;;;;;;;27.75;25.75;;;;;;;;8701757;40;10879;-62
2021/08/01 02:55:43;;;;;;;;;33.00;31.25;;;;;;;;8700630;41;10824;-62
2021/08/01 03:01:46;;;;;;;;;27.00;24.50;;;;;;;;8700129;40;10980;-62
2021/08/01 03:07:50;;;;;;;;;35.25;30.00;;;;;;;;8702105;40;11026;-61
2021/08/01 03:13:52;;;;;;;;;33.25;30.25;;;;;;;;8700985;40;10933;-62
2021/08/01 03:19:56;;;;;;;;;30.75;28.50;;;;;;;;8701352;40;10979;-63
2021/08/01 03:25:59;;;;;;;;;28.00;24.25;;;;;;;;8709528;40;10883;-61
2021/08/01 03:32:02;;;;;;;;;34.75;28.25;;;;;;;;8708100;40;11048;-61
2021/08/01 03:38:05;;;;;;;;;33.50;32.00;;;;;;;;8700954;40;11021;-63
2021/08/01 03:44:25;;;;;;;;;33.00;30.00;;;;;;;;8701067;41;11237;-63
2021/08/01 03:50:27;;;;;;;;;28.00;28.00;;;;;;;;8701183;40;10858;-62
2021/08/01 03:56:30;;;;;;;;;28.50;27.00;;;;;;;;8700253;40;10987;-62
2021/08/01 04:02:39;;;;;;;;;27.00;25.75;;;;;;;;8701526;40;11041;-63
2021/08/01 04:08:42;;;;;;;;;27.25;27.00;;;;;;;;8701021;40;10904;-62
2021/08/01 04:14:44;;;;;;;;;33.75;30.00;;;;;;;;8700194;41;10921;-63
2021/08/01 04:20:46;;;;;;;;;33.00;30.25;;;;;;;;8699387;41;11942;-62
2021/08/01 04:26:50;;;;;;;;;28.50;26.75;;;;;;;;8701392;40;10946;-63
2021/08/01 04:32:52;;;;;;;;;27.25;26.25;;;;;;;;8700915;40;10911;-61
2021/08/01 04:38:54;;;;;;;;;29.00;26.75;;;;;;;;8700567;40;10806;-62
2021/08/01 04:44:56;;;;;;;;;29.75;29.00;;;;;;;;8700521;40;11163;-62
2021/08/01 04:50:59;;;;;;;;;27.25;22.75;;;;;;;;8700156;40;10879;-61
2021/08/01 04:57:01;;;;;;;;;23.25;22.75;;;;;;;;8700268;41;11605;-62
2021/08/01 05:03:04;;;;;;;;;32.50;27.00;;;;;;;;8700004;40;10743;-62
2021/08/01 05:09:06;;;;;;;;;26.25;25.00;;;;;;;;8699454;40;10958;-61
2021/08/01 05:15:09;;;;;;;;;27.25;26.25;;;;;;;;8700685;40;10689;-62
2021/08/01 05:21:11;;;;;;;;;25.25;25.25;;;;;;;;8699597;40;10796;-64
2021/08/01 05:27:14;;;;;;;;;27.25;27.00;;;;;;;;8699058;40;10846;-62
2021/08/01 05:33:16;;;;;;;;;25.50;23.50;;;;;;;;8699822;40;10639;-63
2021/08/01 05:39:18;;;;;;;;;30.50;26.25;;;;;;;;8699647;40;10804;-62
2021/08/01 05:45:20;;;;;;;;;30.25;27.50;;;;;;;;8700204;40;11597;-61
2021/08/01 05:51:22;;;;;;;;;28.75;26.75;;;;;;;;8699743;40;10895;-63
2021/08/01 05:57:24;;;;;;;;;27.75;27.50;;;;;;;;8698898;40;10730;-62
2021/08/01 06:03:26;;;;;;;;;31.00;27.75;;;;;;;;8699411;40;10526;-62
2021/08/01 06:09:30;;;;;;;;;28.00;26.50;;;;;;;;8699827;40;10675;-62
2021/08/01 06:15:32;;;;;;;;;31.25;28.25;;;;;;;;8698554;40;10893;-62
2021/08/01 06:21:35;;;;;;;;;27.00;25.00;;;;;;;;8699697;40;10584;-62
2021/08/01 06:27:37;;;;;;;;;29.75;29.75;;;;;;;;8702921;40;10812;-62
2021/08/01 06:33:39;;;;;;;;;29.25;26.50;;;;;;;;8701214;40;10886;-62
2021/08/01 06:39:44;;;;;;;;;31.75;29.50;;;;;;;;8702855;40;10777;-62
2021/08/01 06:45:47;;;;;;;;;29.50;27.00;;;;;;;;8701259;41;10558;-63
2021/08/01 06:51:50;;;;;;;;;32.75;29.00;;;;;;;;8702073;40;10598;-62
2021/08/01 06:57:52;;;;;;;;;31.25;27.75;;;;;;;;8701459;41;10636;-62
2021/08/01 07:03:54;;;;;;;;;32.75;31.00;;;;;;;;8701150;40;10641;-62
2021/08/01 07:09:56;;;;;;;;;29.25;26.00;;;;;;;;8701363;40;10708;-62
2021/08/01 07:16:05;;;;;;;;;31.50;28.50;;;;;;;;8700924;40;10617;-63
2021/08/01 07:22:10;;;;;;;;;28.50;26.75;;;;;;;;8700743;40;11323;-62
2021/08/01 07:28:12;;;;;;;;;35.50;32.75;;;;;;;;8700751;40;10573;-63
2021/08/01 07:34:14;;;;;;;;;31.50;30.75;;;;;;;;8707001;40;11273;-62
2021/08/01 07:40:16;;;;;;;;;29.00;29.00;;;;;;;;8701980;40;10566;-62
2021/08/01 07:46:19;;;;;;;;;28.75;26.75;;;;;;;;8701055;40;10796;-62
2021/08/01 07:52:22;;;;;;;;;32.50;29.50;;;;;;;;8699495;41;11405;-62
2021/08/01 07:58:24;;;;;;;;;32.75;29.25;;;;;;;;8701498;40;10818;-63
2021/08/01 08:04:27;;;;;;;;;31.75;31.50;;;;;;;;8701392;40;10699;-63
2021/08/01 08:10:29;;;;;;;;;33.00;33.00;;;;;;;;8701374;41;10656;-62
2021/08/01 08:16:33;;;;;;;;;34.50;32.00;;;;;;;;8700422;40;10628;-62
2021/08/01 08:22:36;;;;;;;;;34.75;32.25;;;;;;;;8700880;40;11500;-63
2021/08/01 08:28:39;;;;;;;;;35.25;33.00;;;;;;;;8701349;40;10682;-63
2021/08/01 08:34:41;;;;;;;;;32.75;30.50;;;;;;;;8700939;40;10663;-63
2021/08/01 08:40:44;;;;;;;;;33.50;31.00;;;;;;;;8700933;40;10679;-63
2021/08/01 08:46:47;;;;;;;;;22.50;21.75;;;;;;;;8699071;40;10582;-63
2021/08/01 08:53:01;;;;;;;;;26.75;25.00;;;;;;;;8699876;40;10620;-63
2021/08/01 08:59:04;;;;;;;;;23.00;23.00;;;;;;;;8700239;40;10621;-63
2021/08/01 09:05:07;;;;;;;;;26.75;22.50;;;;;;;;8699215;40;10639;-63
2021/08/01 09:11:10;;;;;;;;;20.50;17.75;;;;;;;;8699374;40;10589;-63
2021/08/01 09:17:12;;;;;;;;;23.50;23.50;;;;;;;;8700398;40;10604;-63
2021/08/01 09:23:15;;;;;;;;;33.75;33.75;;;;;;;;8699736;40;10610;-63
2021/08/01 09:29:17;;;;;;;;;24.75;24.75;;;;;;;;8699203;40;10629;-63
2021/08/01 09:35:21;;;;;;;;;24.50;22.75;;;;;;;;8699853;40;10670;-63
2021/08/01 09:41:43;;;;;;;;;25.75;25.00;;;;;;;;8699363;40;11284;-63
2021/08/01 09:47:47;;;;;;;;;27.25;24.25;;;;;;;;8698998;40;10507;-63
2021/08/01 09:53:57;;;;;;;;;25.00;24.25;;;;;;;;8699584;40;10717;-64
2021/08/01 10:00:09;;;;;;;;;26.25;26.25;;;;;;;;8698874;40;10624;-63
2021/08/01 10:06:14;;;;;;;;;27.50;27.00;;;;;;;;8699804;40;10641;-63
2021/08/01 10:12:18;;;;;;;;;25.75;24.25;;;;;;;;8698950;40;10640;-63
2021/08/01 10:18:20;;;;;;;;;25.75;25.75;;;;;;;;8698626;40;10619;-63
2021/08/01 10:24:26;;;;;;;;;26.75;25.75;;;;;;;;8698505;41;10722;-63
2021/08/01 10:30:30;;;;;;;;;24.25;24.25;;;;;;;;8698705;40;10546;-63
2021/08/01 10:36:33;;;;;;;;;29.75;29.00;;;;;;;;8698860;40;10691;-62
2021/08/01 10:42:40;;;;;;;;;20.25;19.25;;;;;;;;8698027;40;10693;-63
2021/08/01 10:48:43;;;;;;;;;24.25;24.25;;;;;;;;8697710;41;10624;-64
2021/08/01 10:54:52;;;;;;;;;27.00;25.75;;;;;;;;8697549;41;10576;-63
2021/08/01 11:00:54;;;;;;;;;27.00;26.00;;;;;;;;8698706;40;10644;-63
2021/08/01 11:06:56;;;;;;;;;27.50;25.75;;;;;;;;8697998;40;10719;-62
2021/08/01 11:12:59;;;;;;;;;24.25;24.25;;;;;;;;8701706;41;10575;-63
2021/08/01 11:19:01;;;;;;;;;25.00;25.00;;;;;;;;8701178;40;10622;-63
2021/08/01 11:25:30;;;;;;;;;30.50;29.00;;;;;;;;8701305;40;10878;-63
2021/08/01 11:31:32;;;;;;;;;29.25;28.50;;;;;;;;8701270;40;11414;-63
2021/08/01 11:37:34;;;;;;;;;29.25;26.25;;;;;;;;8701282;40;11267;-63
2021/08/01 11:43:36;;;;;;;;;30.50;30.50;;;;;;;;8702166;40;10632;-63
2021/08/01 11:49:41;;;;;;;;;27.75;27.00;;;;;;;;8702224;41;10582;-63
2021/08/01 11:55:47;;;;;;;;;33.00;33.00;;;;;;;;8702311;40;10661;-63
2021/08/01 12:01:50;;;;;;;;;31.75;28.50;;;;;;;;8700695;40;10836;-63
2021/08/01 12:07:52;;;;;;;;;30.25;30.00;;;;;;;;8707970;40;10790;-63
2021/08/01 12:14:12;;;;;;;;;29.00;28.00;;;;;;;;8700042;41;11408;-63
2021/08/01 12:20:15;;;;;;;;;31.25;30.00;;;;;;;;8702113;40;10858;-62
2021/08/01 12:26:37;;;;;;;;;28.50;26.25;;;;;;;;8700779;40;11152;-62
2021/08/01 12:32:43;;;;;;;;;29.00;29.00;;;;;;;;8700074;40;10599;-63
2021/08/01 12:38:45;;;;;;;;;29.50;26.25;;;;;;;;8700065;40;10614;-63
2021/08/01 12:45:08;;;;;;;;;24.50;24.50;;;;;;;;8699834;40;10591;-62
2021/08/01 12:51:10;;;;;;;;;33.00;28.25;;;;;;;;8699995;41;10630;-63
2021/08/01 12:57:13;;;;;;;;;27.50;27.50;;;;;;;;8699982;40;10619;-62
2021/08/01 13:03:40;;;;;;;;;28.00;25.25;;;;;;;;8706751;40;10605;-63
2021/08/01 13:09:42;;;;;;;;;29.50;28.00;;;;;;;;8700322;40;10853;-62
2021/08/01 13:15:51;;;;;;;;;31.00;28.25;;;;;;;;8698066;40;11204;-62
2021/08/01 13:22:14;;;;;;;;;30.50;26.50;;;;;;;;8699275;40;10622;-62
2021/08/01 13:28:16;;;;;;;;;28.00;28.00;;;;;;;;8700389;41;10649;-63
2021/08/01 13:34:20;;;;;;;;;30.00;28.25;;;;;;;;8699803;40;10626;-63
2021/08/01 13:40:28;;;;;;;;;35.25;32.25;;;;;;;;8698848;41;10586;-63
2021/08/01 13:46:31;;;;;;;;;32.00;30.00;;;;;;;;8699377;40;10634;-63
2021/08/01 13:52:36;;;;;;;;;32.75;31.75;;;;;;;;8697981;41;10813;-63
2021/08/01 13:58:39;;;;;;;;;35.75;34.25;;;;;;;;8699828;40;10640;-61
2021/08/01 14:04:42;;;;;;;;;32.25;31.75;;;;;;;;8698904;41;10597;-63
2021/08/01 14:10:45;;;;;;;;;34.00;30.75;;;;;;;;8698391;40;10672;-62
2021/08/01 14:16:48;;;;;;;;;35.25;33.25;;;;;;;;8698223;40;12120;-62
2021/08/01 14:22:50;;;;;;;;;34.00;33.00;;;;;;;;8698479;40;10594;-62
2021/08/01 14:28:53;;;;;;;;;34.50;33.75;;;;;;;;8698203;40;10621;-63
2021/08/01 14:34:59;;;;;;;;;45.75;36.00;;;;;;;;8697987;40;10690;-63
2021/08/01 14:41:01;;;;;;;;;37.00;34.00;;;;;;;;8699026;40;10647;-63
2021/08/01 14:47:10;;;;;;;;;28.75;28.50;;;;;;;;8701688;40;10573;-64
2021/08/01 14:53:13;;;;;;;;;35.00;34.00;;;;;;;;8701661;40;10570;-61
2021/08/01 14:59:15;;;;;;;;;32.75;32.25;;;;;;;;8702302;40;10623;-63
2021/08/01 15:05:48;;;;;;;;;33.50;33.00;;;;;;;;8701067;41;10821;-63
2021/08/01 15:12:10;;;;;;;;;33.00;32.75;;;;;;;;8700806;41;10573;-63
2021/08/01 15:18:18;;;;;;;;;32.50;32.00;;;;;;;;8701080;40;10714;-62
2021/08/01 15:24:39;;;;;;;;;38.75;34.75;;;;;;;;8701995;40;10686;-63
2021/08/01 15:30:42;;;;;;;;;29.00;27.75;;;;;;;;8701544;40;10620;-63
2021/08/01 15:36:45;;;;;;;;;32.50;30.25;;;;;;;;8700884;40;11101;-63
2021/08/01 15:42:54;;;;;;;;;30.00;28.25;;;;;;;;8701842;41;10633;-63
2021/08/01 15:48:56;;;;;;;;;33.25;31.50;;;;;;;;8702054;40;10638;-63
2021/08/01 15:55:08;;;;;;;;;29.00;25.50;;;;;;;;8700569;40;10567;-62
2021/08/01 16:01:52;;;;;;;;;25.75;25.25;;;;;;;;8701865;40;10619;-63
2021/08/01 16:08:08;;;;;;;;;27.50;25.25;;;;;;;;8696653;41;10594;-63
2021/08/01 16:14:16;;;;;;;;;28.00;27.00;;;;;;;;8700674;40;10536;-63
2021/08/01 16:20:18;;;;;;;;;27.00;25.25;;;;;;;;8700383;41;10828;-65
2021/08/01 16:26:27;;;;;;;;;28.00;28.00;;;;;;;;8700180;40;11079;-63
2021/08/01 16:32:31;;;;;;;;;41.75;36.50;;;;;;;;8701409;40;10635;-61
2021/08/01 16:38:33;;;;;;;;;31.75;29.25;;;;;;;;8699969;40;11251;-63
2021/08/01 16:44:47;;;;;;;;;27.75;27.75;;;;;;;;8699999;40;10591;-64
2021/08/01 16:50:56;;;;;;;;;29.50;29.50;;;;;;;;8701216;40;10583;-63
2021/08/01 16:57:12;;;;;;;;;34.25;30.00;;;;;;;;8700052;40;10650;-63
2021/08/01 17:03:16;;;;;;;;;33.00;32.00;;;;;;;;8700150;40;10636;-63
2021/08/01 17:09:28;;;;;;;;;31.25;29.75;;;;;;;;8699230;40;10742;-62
2021/08/01 17:15:30;;;;;;;;;33.25;28.75;;;;;;;;8699609;40;10920;-65
2021/08/01 17:21:36;;;;;;;;;32.25;31.00;;;;;;;;8700697;40;10647;-63
2021/08/01 17:27:39;;;;;;;;;36.25;33.50;;;;;;;;8699767;40;10607;-62
2021/08/01 17:33:54;;;;;;;;;33.75;33.00;;;;;;;;8699773;40;11566;-63
2021/08/01 17:39:58;;;;;;;;;40.00;35.25;;;;;;;;8700344;40;10645;-63
2021/08/01 17:46:09;;;;;;;;;38.00;35.00;;;;;;;;8699648;40;10643;-63
2021/08/01 17:52:11;;;;;;;;;42.50;35.75;;;;;;;;8699832;41;10628;-62
2021/08/01 17:58:14;;;;;;;;;41.25;38.50;;;;;;;;8699895;40;11076;-63
2021/08/01 18:04:16;;;;;;;;;42.50;38.75;;;;;;;;8700010;40;10737;-63
2021/08/01 18:10:20;;;;;;;;;50.25;40.50;;;;;;;;8700240;40;10699;-64
2021/08/01 18:16:25;;;;;;;;;53.50;42.75;;;;;;;;8701122;40;10615;-62
2021/08/01 18:22:28;;;;;;;;;46.50;42.00;;;;;;;;8707829;40;10759;-64
2021/08/01 18:28:31;;;;;;;;;50.50;39.00;;;;;;;;8707666;40;10648;-63
2021/08/01 18:34:35;;;;;;;;;50.75;44.75;;;;;;;;8706504;40;10553;-64
2021/08/01 18:40:38;;;;;;;;;47.25;40.00;;;;;;;;8706179;40;10680;-63
2021/08/01 18:46:42;;;;;;;;;42.00;39.25;;;;;;;;8705746;40;10828;-62
2021/08/01 18:52:52;;;;;;;;;48.50;40.50;;;;;;;;8706703;40;10691;-63
2021/08/01 18:58:56;;;;;;;;;49.75;38.50;;;;;;;;8705848;40;11319;-63
2021/08/01 19:05:04;;;;;;;;;43.50;37.75;;;;;;;;8706106;40;10666;-63
2021/08/01 19:11:06;;;;;;;;;46.00;40.00;;;;;;;;8706411;40;10746;-63
2021/08/01 19:17:32;;;;;;;;;44.00;39.75;;;;;;;;8706702;40;10649;-62
2021/08/01 19:23:57;;;;;;;;;48.25;40.75;;;;;;;;8705676;40;10635;-63
2021/08/01 19:30:01;;;;;;;;;47.50;40.75;;;;;;;;8702152;41;10655;-63
2021/08/01 19:36:03;;;;;;;;;51.75;42.25;;;;;;;;8701381;40;10827;-62
2021/08/01 19:42:09;;;;;;;;;51.25;41.75;;;;;;;;8701730;40;11085;-63
2021/08/01 19:48:11;;;;;;;;;56.75;43.50;;;;;;;;8701149;40;10689;-63
2021/08/01 19:54:14;;;;;;;;;53.00;44.75;;;;;;;;8708127;40;10745;-62
2021/08/01 20:00:16;;;;;;;;;50.00;41.00;;;;;;;;8701746;40;10843;-62
2021/08/01 20:06:25;;;;;;;;;49.50;42.75;;;;;;;;8701943;40;10806;-63
2021/08/01 20:12:27;;;;;;;;;49.25;41.25;;;;;;;;8700685;41;11031;-62
2021/08/01 20:18:31;;;;;;;;;52.75;43.50;;;;;;;;8700854;40;10720;-62
2021/08/01 20:24:33;;;;;;;;;49.50;41.75;;;;;;;;8701512;40;10697;-62
2021/08/01 20:30:35;;;;;;;;;48.00;42.75;;;;;;;;8700273;40;10760;-63
2021/08/01 20:36:37;;;;;;;;;57.25;46.50;;;;;;;;8700348;40;10730;-63
2021/08/01 20:42:39;;;;;;;;;42.00;39.50;;;;;;;;8707032;40;10764;-62
2021/08/01 20:48:42;;;;;;;;;54.00;43.50;;;;;;;;8706816;40;10724;-62
2021/08/01 20:54:44;;;;;;;;;52.25;42.75;;;;;;;;8699621;41;10870;-62
2021/08/01 21:00:48;;;;;;;;;49.25;42.00;;;;;;;;8699781;40;10873;-62
2021/08/01 21:06:50;;;;;;;;;41.00;38.00;;;;;;;;8699875;41;10836;-63
2021/08/01 21:12:54;;;;;;;;;44.75;40.00;;;;;;;;8699968;40;10778;-62
2021/08/01 21:18:56;;;;;;;;;50.50;42.00;;;;;;;;8699305;40;10755;-62
2021/08/01 21:25:00;;;;;;;;;49.25;41.50;;;;;;;;8699772;40;11059;-64
2021/08/01 21:31:02;;;;;;;;;47.25;40.25;;;;;;;;8706181;40;10749;-63
2021/08/01 21:37:05;;;;;;;;;51.25;42.00;;;;;;;;8699874;40;11172;-62
2021/08/01 21:43:07;;;;;;;;;51.25;43.00;;;;;;;;8699853;40;10882;-63
2021/08/01 21:49:09;;;;;;;;;50.00;43.00;;;;;;;;8699582;40;11468;-62
2021/08/01 21:55:12;;;;;;;;;52.00;44.00;;;;;;;;8698860;41;10872;-63
2021/08/01 22:01:20;;;;;;;;;49.25;42.25;;;;;;;;8698676;40;11082;-63
2021/08/01 22:07:26;;;;;;;;;48.00;41.00;;;;;;;;8705915;40;10879;-63
2021/08/01 22:13:30;;;;;;;;;43.75;39.75;;;;;;;;8699675;41;10967;-61
2021/08/01 22:19:35;;;;;;;;;43.75;38.50;;;;;;;;8699331;41;10874;-62
2021/08/01 22:25:38;;;;;;;;;45.25;40.25;;;;;;;;8698549;40;10891;-62
2021/08/01 22:31:43;;;;;;;;;52.75;41.75;;;;;;;;8698449;40;10867;-61
2021/08/01 22:37:49;;;;;;;;;52.00;41.75;;;;;;;;8698548;40;10944;-62
2021/08/01 22:43:52;;;;;;;;;47.00;42.00;;;;;;;;8699013;40;10721;-63
2021/08/01 22:49:55;;;;;;;;;40.75;36.00;;;;;;;;8697977;41;10725;-63
2021/08/01 22:55:57;;;;;;;;;45.75;37.25;;;;;;;;8698349;41;10873;-63
2021/08/01 23:02:04;;;;;;;;;43.00;34.50;;;;;;;;8704728;40;11278;-63
2021/08/01 23:08:15;;;;;;;;;44.25;39.00;;;;;;;;8701647;41;10794;-62
2021/08/01 23:14:30;;;;;;;;;41.75;36.25;;;;;;;;8702588;41;10948;-63
2021/08/01 23:20:34;;;;;;;;;35.25;34.00;;;;;;;;8701493;40;11387;-62
2021/08/01 23:26:38;;;;;;;;;39.75;33.50;;;;;;;;8701317;41;10733;-62
2021/08/01 23:32:42;;;;;;;;;43.00;38.75;;;;;;;;8701543;40;10928;-62
2021/08/01 23:38:45;;;;;;;;;36.50;36.00;;;;;;;;8702049;40;10697;-62
2021/08/01 23:44:49;;;;;;;;;39.50;37.00;;;;;;;;8700815;41;10572;-63
2021/08/01 23:50:55;;;;;;;;;44.00;39.25;;;;;;;;8700936;40;11751;-62
2021/08/01 23:57:16;;;;;;;;;35.50;34.75;;;;;;;;8700514;40;10638;-65
